createdAt,value
2018-05-25T00:01:09.559Z,22.15
2018-05-25T00:03:38.195Z,22.14
2018-05-25T00:06:09.279Z,22.13
2018-05-25T00:08:37.863Z,22.13
2018-05-25T00:11:06.450Z,22.11
2018-05-25T00:13:35.344Z,22.08
2018-05-25T00:16:10.048Z,22.06
2018-05-25T00:18:38.620Z,22.06
2018-05-25T00:21:07.760Z,22.03
2018-05-25T00:23:42.296Z,22.02
2018-05-25T00:26:10.890Z,22.01
2018-05-25T00:28:39.872Z,21.96
2018-05-25T00:31:09.439Z,21.95
2018-05-25T00:33:38.135Z,21.89
2018-05-25T00:36:07.016Z,21.84
2018-05-25T00:38:35.590Z,21.81
2018-05-25T00:41:05.079Z,21.82
2018-05-25T00:43:34.047Z,21.82
2018-05-25T00:46:07.807Z,21.80
2018-05-25T00:48:36.748Z,21.78
2018-05-25T00:51:07.008Z,21.79
2018-05-25T00:53:35.594Z,21.75
2018-05-25T00:56:07.367Z,21.69
2018-05-25T00:58:39.615Z,21.61
2018-05-25T01:01:08.499Z,21.53
2018-05-25T01:03:37.500Z,21.48
2018-05-25T01:06:06.043Z,21.45
2018-05-25T01:08:36.555Z,21.41
2018-05-25T01:11:05.567Z,21.35
2018-05-25T01:13:37.287Z,21.25
2018-05-25T01:16:05.863Z,21.18
2018-05-25T01:18:41.549Z,21.10
2018-05-25T01:21:10.165Z,21.05
2018-05-25T01:23:39.937Z,21.00
2018-05-25T01:26:08.946Z,20.97
2018-05-25T01:28:37.532Z,20.93
2018-05-25T01:31:06.478Z,20.92
2018-05-25T01:33:35.680Z,20.90
2018-05-25T01:36:05.262Z,20.88
2018-05-25T01:38:33.753Z,20.90
2018-05-25T01:41:02.970Z,20.89
2018-05-25T01:43:33.393Z,20.92
2018-05-25T01:46:04.435Z,20.93
2018-05-25T01:48:35.604Z,20.91
2018-05-25T01:51:04.514Z,20.91
2018-05-25T01:53:33.078Z,20.91
2018-05-25T01:56:03.837Z,20.88
2018-05-25T01:58:32.562Z,20.89
2018-05-25T02:01:01.143Z,20.87
2018-05-25T02:03:29.743Z,20.85
2018-05-25T02:05:58.399Z,20.82
2018-05-25T02:08:27.207Z,20.83
2018-05-25T02:10:56.225Z,20.83
2018-05-25T02:13:24.739Z,20.81
2018-05-25T02:15:54.098Z,20.82
2018-05-25T02:18:22.609Z,20.81
2018-05-25T02:20:51.687Z,20.80
2018-05-25T02:23:20.950Z,20.79
2018-05-25T02:25:49.994Z,20.78
2018-05-25T02:28:18.550Z,20.77
2018-05-25T02:30:47.824Z,20.75
2018-05-25T02:33:16.665Z,20.76
2018-05-25T02:35:49.927Z,20.74
2018-05-25T02:38:18.846Z,20.65
2018-05-25T02:40:47.973Z,20.62
2018-05-25T02:43:16.547Z,20.58
2018-05-25T02:45:45.583Z,20.54
2018-05-25T02:48:14.179Z,20.53
2018-05-25T02:50:42.698Z,20.49
2018-05-25T02:53:11.923Z,20.51
2018-05-25T02:55:45.367Z,20.47
2018-05-25T02:58:14.956Z,20.39
2018-05-25T03:00:43.851Z,20.32
2018-05-25T03:03:12.529Z,20.26
2018-05-25T03:05:41.147Z,20.23
2018-05-25T03:08:10.302Z,20.17
2018-05-25T03:10:40.052Z,20.11
2018-05-25T03:13:08.646Z,20.06
2018-05-25T03:15:39.230Z,20.02
2018-05-25T03:18:07.763Z,19.99
2018-05-25T03:20:36.263Z,19.92
2018-05-25T03:23:05.249Z,19.88
2018-05-25T03:25:33.765Z,19.85
2018-05-25T03:28:03.328Z,19.82
2018-05-25T03:30:32.372Z,19.79
2018-05-25T03:33:06.468Z,19.77
2018-05-25T03:35:35.250Z,19.72
2018-05-25T03:38:05.345Z,19.67
2018-05-25T03:40:33.897Z,19.63
2018-05-25T03:43:06.070Z,19.57
2018-05-25T03:45:35.234Z,19.54
2018-05-25T03:48:04.732Z,19.54
2018-05-25T03:50:33.302Z,19.57
2018-05-25T03:53:02.661Z,19.57
2018-05-25T03:55:32.234Z,19.59
2018-05-25T03:58:00.907Z,19.56
2018-05-25T04:00:41.036Z,19.56
2018-05-25T04:03:09.606Z,19.58
2018-05-25T04:05:38.432Z,19.59
2018-05-25T04:08:10.368Z,19.59
2018-05-25T04:10:38.959Z,19.63
2018-05-25T04:13:07.936Z,19.67
2018-05-25T04:15:36.470Z,19.74
2018-05-25T04:18:05.567Z,19.78
2018-05-25T04:20:37.875Z,19.80
2018-05-25T04:23:06.553Z,19.83
2018-05-25T04:25:37.243Z,19.89
2018-05-25T04:28:07.083Z,19.94
2018-05-25T04:30:35.665Z,19.97
2018-05-25T04:33:05.186Z,19.99
2018-05-25T04:35:36.958Z,20.03
2018-05-25T04:38:05.804Z,20.05
2018-05-25T04:40:34.416Z,20.06
2018-05-25T04:45:38.113Z,20.12
2018-05-25T04:48:06.674Z,20.16
2018-05-25T04:50:36.597Z,20.20
2018-05-25T04:53:05.759Z,20.25
2018-05-25T04:55:34.336Z,20.29
2018-05-25T04:58:11.191Z,20.33
2018-05-25T05:00:39.818Z,20.37
2018-05-25T05:03:08.461Z,20.41
2018-05-25T05:05:37.616Z,20.47
2018-05-25T05:08:06.200Z,20.51
2018-05-25T05:10:34.766Z,20.49
2018-05-25T05:13:04.045Z,20.46
2018-05-25T05:15:32.667Z,20.46
2018-05-25T05:18:06.620Z,20.49
2018-05-25T05:20:36.015Z,20.55
2018-05-25T05:23:04.838Z,20.59
2018-05-25T05:25:33.462Z,20.60
2018-05-25T05:28:08.105Z,20.61
2018-05-25T05:30:36.903Z,20.62
2018-05-25T05:33:05.705Z,20.65
2018-05-25T05:35:34.981Z,20.65
2018-05-25T05:38:15.369Z,20.66
2018-05-25T05:40:44.580Z,20.72
2018-05-25T05:43:13.243Z,20.77
2018-05-25T05:45:41.892Z,20.80
2018-05-25T05:48:10.950Z,20.82
2018-05-25T05:50:39.508Z,20.85
2018-05-25T05:53:12.047Z,20.91
2018-05-25T05:55:40.899Z,20.97
2018-05-25T05:58:15.871Z,21.03
2018-05-25T06:00:44.516Z,21.09
2018-05-25T06:03:17.587Z,21.18
2018-05-25T06:05:46.289Z,21.20
2018-05-25T06:08:16.287Z,21.23
2018-05-25T06:10:44.851Z,21.22
2018-05-25T06:13:13.512Z,21.26
2018-05-25T06:15:49.091Z,21.29
2018-05-25T06:18:18.666Z,21.28
2018-05-25T06:20:47.230Z,21.30
2018-05-25T06:23:17.320Z,21.29
2018-05-25T06:25:45.921Z,21.31
2018-05-25T06:28:14.607Z,21.26
2018-05-25T06:30:43.792Z,21.24
2018-05-25T06:33:12.544Z,21.27
2018-05-25T06:35:41.083Z,21.28
2018-05-25T06:38:15.621Z,21.36
2018-05-25T06:40:44.292Z,21.44
2018-05-25T06:43:13.111Z,21.48
2018-05-25T06:45:42.277Z,21.48
2018-05-25T06:48:10.897Z,21.50
2018-05-25T06:50:39.912Z,21.53
2018-05-25T06:53:14.857Z,21.59
2018-05-25T06:55:43.446Z,21.71
2018-05-25T06:58:12.044Z,21.79
2018-05-25T07:00:40.959Z,21.95
2018-05-25T07:03:09.507Z,22.02
2018-05-25T07:05:41.565Z,22.07
2018-05-25T07:08:10.864Z,22.11
2018-05-25T07:10:39.611Z,22.19
2018-05-25T07:13:13.043Z,22.30
2018-05-25T07:15:43.276Z,22.37
2018-05-25T07:18:11.843Z,22.43
2018-05-25T07:20:40.486Z,22.49
2018-05-25T07:23:10.909Z,22.57
2018-05-25T07:25:39.555Z,22.64
2018-05-25T07:28:08.185Z,22.77
2018-05-25T07:30:37.169Z,22.90
2018-05-25T07:33:07.719Z,23.02
2018-05-25T07:35:36.697Z,23.12
2018-05-25T07:38:09.510Z,23.20
2018-05-25T07:40:38.277Z,23.30
2018-05-25T07:43:08.869Z,23.35
2018-05-25T07:45:37.921Z,23.38
2018-05-25T07:48:06.572Z,23.41
2018-05-25T07:50:35.220Z,23.43
2018-05-25T07:53:05.949Z,23.48
2018-05-25T07:55:39.794Z,23.54
2018-05-25T07:58:08.462Z,23.60
2018-05-25T08:00:37.499Z,23.59
2018-05-25T08:03:06.116Z,23.58
2018-05-25T08:07:44.202Z,23.58
2018-05-25T08:10:12.853Z,23.65
2018-05-25T08:12:41.727Z,23.66
2018-05-25T08:15:10.697Z,23.55
2018-05-25T08:17:39.306Z,23.56
2018-05-25T08:20:10.814Z,23.59
2018-05-25T08:22:40.115Z,23.67
2018-05-25T08:25:09.155Z,23.69
2018-05-25T08:27:37.706Z,23.80
2018-05-25T08:30:21.802Z,23.86
2018-05-25T08:32:50.722Z,23.91
2018-05-25T08:35:19.300Z,23.96
2018-05-25T08:37:53.446Z,24.04
2018-05-25T08:40:23.071Z,24.11
2018-05-25T08:42:57.063Z,24.14
2018-05-25T08:45:26.577Z,24.21
2018-05-25T08:47:55.164Z,24.30
2018-05-25T08:50:26.400Z,24.38
2018-05-25T08:53:02.167Z,24.55
2018-05-25T08:55:30.760Z,24.71
2018-05-25T08:57:59.509Z,24.80
2018-05-25T09:00:28.683Z,24.88
2018-05-25T09:02:57.759Z,24.95
2018-05-25T09:05:26.293Z,25.00
2018-05-25T09:07:59.250Z,24.98
2018-05-25T09:10:28.235Z,24.97
2018-05-25T09:15:58.426Z,25.25
2018-05-25T09:18:28.769Z,25.33
2018-05-25T09:20:58.020Z,25.39
2018-05-25T09:23:29.095Z,25.34
2018-05-25T09:25:57.637Z,25.55
2018-05-25T09:28:26.286Z,25.61
2018-05-25T09:30:55.221Z,25.71
2018-05-25T09:33:23.782Z,25.75
2018-05-25T09:35:52.394Z,25.76
2018-05-25T09:38:20.931Z,25.65
2018-05-25T09:40:49.765Z,25.81
2018-05-25T09:43:18.591Z,25.85
2018-05-25T09:45:47.469Z,25.98
2018-05-25T09:48:16.034Z,26.09
2018-05-25T09:50:44.689Z,26.16
2018-05-25T09:53:13.543Z,26.10
2018-05-25T09:55:43.355Z,26.10
2018-05-25T09:58:11.942Z,26.04
2018-05-25T10:00:40.591Z,26.01
2018-05-25T10:03:09.505Z,26.09
2018-05-25T10:05:38.096Z,26.16
2018-05-25T10:08:09.914Z,26.18
2018-05-25T10:10:38.796Z,26.31
2018-05-25T10:13:07.411Z,26.42
2018-05-25T10:15:41.416Z,26.47
2018-05-25T10:18:10.260Z,26.55
2018-05-25T10:20:38.827Z,26.60
2018-05-25T10:23:07.466Z,26.71
2018-05-25T10:25:37.263Z,26.72
2018-05-25T10:30:45.410Z,26.92
2018-05-25T10:33:14.803Z,27.07
2018-05-25T10:35:43.598Z,27.08
2018-05-25T10:38:12.451Z,27.03
2018-05-25T10:40:41.053Z,26.84
2018-05-25T10:43:09.897Z,27.01
2018-05-25T10:45:38.812Z,27.22
2018-05-25T10:48:14.121Z,27.36
2018-05-25T10:50:42.671Z,27.61
2018-05-25T10:53:11.609Z,27.76
2018-05-25T10:55:40.481Z,27.99
2018-05-25T10:58:09.253Z,27.89
2018-05-25T11:00:37.827Z,28.13
2018-05-25T11:03:06.911Z,28.18
2018-05-25T11:05:35.475Z,28.45
2018-05-25T11:08:05.112Z,28.64
2018-05-25T11:10:36.758Z,28.78
2018-05-25T11:13:05.379Z,28.91
2018-05-25T11:15:33.952Z,29.19
2018-05-25T11:18:04.869Z,29.10
2018-05-25T11:20:33.525Z,29.00
2018-05-25T11:23:03.163Z,29.00
2018-05-25T11:25:32.131Z,28.83
2018-05-25T11:28:00.939Z,28.67
2018-05-25T11:30:29.653Z,28.62
2018-05-25T11:33:00.059Z,28.84
2018-05-25T11:35:28.922Z,29.03
2018-05-25T11:37:57.532Z,29.19
2018-05-25T11:40:26.696Z,29.63
2018-05-25T11:42:56.317Z,30.06
2018-05-25T11:45:24.998Z,30.23
2018-05-25T11:47:53.935Z,30.35
2018-05-25T11:50:22.581Z,30.41
2018-05-25T11:52:51.934Z,30.52
2018-05-25T11:55:20.766Z,30.72
2018-05-25T11:57:50.334Z,30.97
2018-05-25T12:00:24.628Z,31.11
2018-05-25T12:02:53.517Z,31.01
2018-05-25T12:05:23.899Z,30.86
2018-05-25T12:07:53.304Z,30.72
2018-05-25T12:10:23.063Z,30.67
2018-05-25T12:12:51.662Z,30.66
2018-05-25T12:15:20.352Z,30.53
2018-05-25T12:17:49.687Z,30.81
2018-05-25T12:20:18.626Z,31.30
2018-05-25T12:22:52.546Z,31.68
2018-05-25T12:25:21.498Z,31.94
2018-05-25T12:27:50.353Z,32.06
2018-05-25T12:30:27.699Z,31.95
2018-05-25T12:32:56.843Z,31.71
2018-05-25T12:35:31.303Z,31.68
2018-05-25T12:38:00.176Z,31.78
2018-05-25T12:40:29.025Z,32.03
2018-05-25T12:42:58.489Z,32.56
2018-05-25T12:45:27.054Z,32.87
2018-05-25T12:47:56.635Z,32.73
2018-05-25T12:50:25.219Z,32.42
2018-05-25T12:52:53.833Z,32.19
2018-05-25T12:55:23.178Z,32.02
2018-05-25T12:57:51.718Z,32.15
2018-05-25T13:00:20.854Z,32.72
2018-05-25T13:02:49.973Z,32.88
2018-05-25T13:05:24.031Z,33.72
2018-05-25T13:07:53.751Z,33.73
2018-05-25T13:10:23.077Z,33.76
2018-05-25T13:12:51.695Z,33.54
2018-05-25T13:15:20.249Z,33.09
2018-05-25T13:17:50.426Z,32.64
2018-05-25T13:20:19.006Z,32.08
2018-05-25T13:22:47.900Z,31.58
2018-05-25T13:25:17.058Z,31.24
2018-05-25T13:27:45.632Z,30.92
2018-05-25T13:30:14.244Z,30.63
2018-05-25T13:32:44.087Z,30.52
2018-05-25T13:35:12.750Z,30.53
2018-05-25T13:37:48.187Z,31.30
2018-05-25T13:40:17.300Z,32.55
2018-05-25T13:42:46.047Z,33.46
2018-05-25T13:45:19.345Z,33.87
2018-05-25T13:47:48.925Z,34.03
2018-05-25T13:50:17.705Z,34.13
2018-05-25T13:54:17.435Z,34.62
2018-05-25T13:56:53.277Z,36.61
2018-05-25T13:59:22.984Z,37.56
2018-05-25T14:01:51.775Z,38.07
2018-05-25T14:04:21.089Z,38.47
2018-05-25T14:06:49.875Z,38.71
2018-05-25T14:09:19.530Z,39.01
2018-05-25T14:11:48.382Z,39.02
2018-05-25T14:14:17.215Z,39.58
2018-05-25T14:19:26.751Z,40.64
2018-05-25T14:21:55.911Z,41.19
2018-05-25T14:24:24.835Z,41.72
2018-05-25T14:26:54.071Z,41.43
2018-05-25T14:29:22.780Z,41.80
2018-05-25T14:31:51.683Z,42.23
2018-05-25T14:34:20.263Z,42.49
2018-05-25T14:36:49.258Z,42.53
2018-05-25T14:39:17.921Z,42.59
2018-05-25T14:41:46.519Z,42.43
2018-05-25T14:44:16.148Z,42.62
2018-05-25T14:46:44.955Z,42.12
2018-05-25T14:49:24.495Z,41.73
2018-05-25T14:51:53.058Z,41.66
2018-05-25T14:54:21.929Z,41.83
2018-05-25T14:56:51.949Z,41.65
2018-05-25T14:59:20.772Z,40.72
2018-05-25T15:01:49.873Z,40.73
2018-05-25T15:04:18.539Z,40.20
2018-05-25T15:06:47.096Z,40.00
2018-05-25T15:09:16.261Z,40.27
2018-05-25T15:11:44.836Z,40.57
2018-05-25T15:14:13.687Z,40.72
2018-05-25T15:16:42.596Z,41.28
2018-05-25T15:19:17.185Z,40.94
2018-05-25T15:24:25.004Z,41.11
2018-05-25T15:27:01.031Z,40.96
2018-05-25T15:29:29.849Z,41.04
2018-05-25T15:31:58.417Z,41.01
2018-05-25T15:34:27.865Z,40.80
2018-05-25T15:36:56.452Z,40.48
2018-05-25T15:39:25.064Z,39.56
2018-05-25T15:41:53.994Z,38.85
2018-05-25T15:44:22.756Z,38.47
2018-05-25T15:46:51.527Z,37.71
2018-05-25T15:49:20.481Z,37.37
2018-05-25T15:51:54.073Z,36.60
2018-05-25T15:54:22.914Z,35.72
2018-05-25T15:56:52.699Z,35.66
2018-05-25T15:59:22.159Z,35.34
2018-05-25T16:01:54.689Z,35.28
2018-05-25T16:04:23.853Z,34.87
2018-05-25T16:06:56.842Z,34.58
2018-05-25T16:09:25.659Z,34.57
2018-05-25T16:12:05.632Z,34.52
2018-05-25T16:14:34.466Z,34.49
2018-05-25T16:17:04.877Z,34.44
2018-05-25T16:19:34.693Z,34.44
2018-05-25T16:22:06.337Z,34.12
2018-05-25T16:24:41.406Z,33.69
2018-05-25T16:27:10.196Z,33.78
2018-05-25T16:29:38.756Z,33.89
2018-05-25T16:32:08.814Z,33.78
2018-05-25T16:34:37.659Z,33.60
2018-05-25T16:37:13.067Z,33.54
2018-05-25T16:39:42.122Z,33.54
2018-05-25T16:42:11.761Z,33.52
2018-05-25T16:44:40.427Z,33.49
2018-05-25T16:47:09.711Z,33.34
2018-05-25T16:49:38.464Z,33.37
2018-05-25T16:52:08.336Z,33.34
2018-05-25T16:54:37.270Z,33.32
2018-05-25T16:57:06.663Z,33.07
2018-05-25T16:59:35.977Z,33.06
2018-05-25T17:02:09.975Z,33.00
2018-05-25T17:04:38.841Z,33.01
2018-05-25T17:07:07.491Z,32.98
2018-05-25T17:09:36.371Z,32.97
2018-05-25T17:12:06.059Z,32.79
2018-05-25T17:14:34.593Z,32.55
2018-05-25T17:17:05.617Z,32.24
2018-05-25T17:19:34.248Z,32.10
2018-05-25T17:22:08.991Z,31.92
2018-05-25T17:24:49.604Z,31.79
2018-05-25T17:27:22.913Z,31.60
2018-05-25T17:29:52.360Z,31.50
2018-05-25T17:32:21.050Z,31.35
2018-05-25T17:34:49.954Z,31.20
2018-05-25T17:37:19.792Z,31.14
2018-05-25T17:39:48.670Z,31.04
2018-05-25T17:42:18.355Z,30.96
2018-05-25T17:44:47.385Z,30.91
2018-05-25T17:47:16.371Z,30.91
2018-05-25T17:49:44.952Z,30.89
2018-05-25T17:52:14.083Z,30.86
2018-05-25T17:54:42.930Z,30.81
2018-05-25T17:57:12.435Z,30.81
2018-05-25T17:59:41.246Z,30.81
2018-05-25T18:02:10.294Z,30.77
2018-05-25T18:04:39.035Z,30.74
2018-05-25T18:07:08.701Z,30.70
2018-05-25T18:09:41.287Z,30.64
2018-05-25T18:12:10.607Z,30.60
2018-05-25T18:17:14.207Z,30.56
2018-05-25T18:19:43.540Z,30.48
2018-05-25T18:22:12.828Z,30.41
2018-05-25T18:24:41.396Z,30.29
2018-05-25T18:27:10.067Z,30.22
2018-05-25T18:29:38.886Z,30.13
2018-05-25T18:32:11.606Z,30.06
2018-05-25T18:34:40.573Z,29.92
2018-05-25T18:37:09.594Z,29.82
2018-05-25T18:39:38.424Z,29.68
2018-05-25T18:42:08.728Z,29.53
2018-05-25T18:44:37.675Z,29.46
2018-05-25T18:47:06.559Z,29.37
2018-05-25T18:49:44.391Z,29.31
2018-05-25T18:52:14.235Z,29.23
2018-05-25T18:54:42.835Z,29.16
2018-05-25T18:57:11.822Z,29.08
2018-05-25T18:59:40.805Z,28.99
2018-05-25T19:02:09.903Z,28.92
2018-05-25T19:04:38.595Z,28.82
2018-05-25T19:07:13.223Z,28.75
2018-05-25T19:09:42.513Z,28.66
2018-05-25T19:12:15.693Z,28.55
2018-05-25T19:14:45.458Z,28.48
2018-05-25T19:17:14.187Z,28.40
2018-05-25T19:19:43.019Z,28.28
2018-05-25T19:24:46.222Z,28.10
2018-05-25T19:27:16.009Z,28.06
2018-05-25T19:29:44.698Z,28.02
2018-05-25T19:32:13.655Z,27.99
2018-05-25T19:34:42.716Z,27.94
2018-05-25T19:37:12.511Z,27.92
2018-05-25T19:39:41.632Z,27.86
2018-05-25T19:42:10.677Z,27.80
2018-05-25T19:44:40.950Z,27.69
2018-05-25T19:47:09.810Z,27.65
2018-05-25T19:49:40.168Z,27.63
2018-05-25T19:52:12.726Z,27.60
2018-05-25T19:54:41.902Z,27.58
2018-05-25T19:57:11.205Z,27.58
2018-05-25T19:59:40.580Z,27.55
2018-05-25T20:02:09.163Z,27.54
2018-05-25T20:04:43.658Z,27.49
2018-05-25T20:07:12.428Z,27.42
2018-05-25T20:09:54.062Z,27.42
2018-05-25T20:12:23.277Z,27.38
2018-05-25T20:17:25.613Z,27.33
2018-05-25T20:20:00.846Z,27.29
2018-05-25T20:22:29.794Z,27.26
2018-05-25T20:24:58.450Z,27.24
2018-05-25T20:27:27.802Z,27.23
2018-05-25T20:29:56.741Z,27.20
2018-05-25T20:32:27.610Z,27.18
2018-05-25T20:34:56.490Z,27.12
2018-05-25T20:37:25.232Z,27.11
2018-05-25T20:39:55.391Z,27.07
2018-05-25T20:42:23.999Z,27.05
2018-05-25T20:44:52.947Z,26.96
2018-05-25T20:47:21.982Z,26.94
2018-05-25T20:49:50.716Z,26.93
2018-05-25T20:52:19.333Z,26.92
2018-05-25T20:54:48.678Z,26.87
2018-05-25T20:57:17.315Z,26.81
2018-05-25T20:59:45.910Z,26.78
2018-05-25T21:02:15.789Z,26.75
2018-05-25T21:04:44.293Z,26.72
2018-05-25T21:07:13.187Z,26.73
2018-05-25T21:09:42.394Z,26.71
2018-05-25T21:12:11.081Z,26.71
2018-05-25T21:14:39.600Z,26.65
2018-05-25T21:17:08.711Z,26.58
2018-05-25T21:19:37.349Z,26.54
2018-05-25T21:22:06.365Z,26.49
2018-05-25T21:24:35.669Z,26.47
2018-05-25T21:27:10.683Z,26.44
2018-05-25T21:29:39.762Z,26.41
2018-05-25T21:32:08.720Z,26.37
2018-05-25T21:34:38.003Z,26.31
2018-05-25T21:37:06.571Z,26.28
2018-05-25T21:39:35.404Z,26.24
2018-05-25T21:42:08.413Z,26.19
2018-05-25T21:44:37.054Z,26.09
2018-05-25T21:47:06.646Z,26.08
2018-05-25T21:49:36.133Z,26.11
2018-05-25T21:52:07.736Z,26.10
2018-05-25T21:54:36.744Z,26.06
2018-05-25T21:57:06.399Z,26.00
2018-05-25T21:59:34.968Z,25.95
2018-05-25T22:02:06.154Z,25.91
2018-05-25T22:04:34.932Z,25.84
2018-05-25T22:07:05.122Z,25.83
2018-05-25T22:09:34.196Z,25.80
2018-05-25T22:12:04.651Z,25.78
2018-05-25T22:14:33.411Z,25.77
2018-05-25T22:17:06.347Z,25.74
2018-05-25T22:19:36.100Z,25.71
2018-05-25T22:22:05.855Z,25.69
2018-05-25T22:24:37.791Z,25.68
2018-05-25T22:27:06.420Z,25.66
2018-05-25T22:29:34.944Z,25.64
2018-05-25T22:32:04.369Z,25.64
2018-05-25T22:34:33.883Z,25.58
2018-05-25T22:37:03.239Z,25.55
2018-05-25T22:39:33.471Z,25.51
2018-05-25T22:42:04.670Z,25.49
2018-05-25T22:44:44.665Z,25.48
2018-05-25T22:47:24.723Z,25.45
2018-05-25T22:50:10.158Z,25.41
2018-05-25T22:52:41.854Z,25.41
2018-05-25T22:55:13.465Z,25.38
2018-05-25T22:57:42.015Z,25.35
2018-05-25T23:00:15.592Z,25.31
2018-05-25T23:02:44.166Z,25.23
2018-05-25T23:05:12.723Z,25.19
2018-05-25T23:07:41.725Z,25.16
2018-05-25T23:10:10.170Z,25.14
2018-05-25T23:12:38.708Z,25.12
2018-05-25T23:15:08.148Z,25.08
2018-05-25T23:17:36.804Z,25.07
2018-05-25T23:20:06.016Z,25.03
2018-05-25T23:22:34.966Z,24.97
2018-05-25T23:25:04.179Z,24.93
2018-05-25T23:27:34.075Z,24.91
2018-05-25T23:30:05.449Z,24.87
2018-05-25T23:32:33.998Z,24.86
2018-05-25T23:35:08.409Z,24.86
2018-05-25T23:37:36.933Z,24.85
2018-05-25T23:40:11.033Z,24.82
2018-05-25T23:42:39.876Z,24.81
2018-05-25T23:45:14.260Z,24.76
2018-05-25T23:47:43.883Z,24.75
2018-05-25T23:50:12.755Z,24.70
2018-05-25T23:52:41.284Z,24.69
2018-05-25T23:55:09.903Z,24.67
2018-05-25T23:57:38.501Z,24.65
